Time;durP1;ratioP1;P1;durP2;ratioP2;P2;SDS_P1;SDS_P2;PMS_P1;PMS_P2;Temp;Humidity;BMP_temperature;BMP_pressure;BME280_temperature;BME280_humidity;BME280_pressure;Samples;Min_cycle;Max_cycle;Signal;HPM_P1;HPM_P2
2022/01/07 00:01:30;;;;;;;17.58;7.68;;;-2.60;81.30;;;;;;5073304;28;20029;-78
2022/01/07 00:03:56;;;;;;;15.13;6.80;;;-2.50;81.30;;;;;;5073321;28;20031;-78
2022/01/07 00:06:22;;;;;;;19.38;7.32;;;-2.60;81.20;;;;;;5073171;28;20029;-78
2022/01/07 00:08:47;;;;;;;16.10;7.40;;;-2.60;81.50;;;;;;5073284;28;20047;-77
2022/01/07 00:11:13;;;;;;;18.65;7.80;;;-2.60;81.70;;;;;;5073212;28;20408;-78
2022/01/07 00:13:39;;;;;;;20.75;7.65;;;-2.60;82.00;;;;;;5073157;28;20091;-78
2022/01/07 00:16:05;;;;;;;23.05;8.30;;;-2.60;82.00;;;;;;5073316;28;20032;-78
2022/01/07 00:18:30;;;;;;;21.88;7.53;;;-2.60;81.90;;;;;;5073107;28;20522;-76
2022/01/07 00:20:56;;;;;;;18.63;7.47;;;-2.60;81.80;;;;;;5073255;28;20096;-78
2022/01/07 00:23:22;;;;;;;21.38;8.85;;;-2.60;81.80;;;;;;5073108;28;20020;-79
2022/01/07 00:25:48;;;;;;;22.30;8.82;;;-2.60;81.70;;;;;;5073107;28;20102;-77
2022/01/07 00:28:14;;;;;;;24.70;9.15;;;-2.70;81.40;;;;;;5073110;28;20035;-75
2022/01/07 00:30:40;;;;;;;22.08;9.23;;;-2.80;81.60;;;;;;5072830;28;20028;-74
2022/01/07 00:33:06;;;;;;;18.98;7.88;;;-2.80;82.10;;;;;;5073132;28;20487;-74
2022/01/07 00:35:33;;;;;;;19.58;8.27;;;-2.80;82.20;;;;;;5054860;28;20400;-74
2022/01/07 00:37:59;;;;;;;21.35;7.82;;;-2.80;81.90;;;;;;5072951;28;20016;-74
2022/01/07 00:40:25;;;;;;;19.65;6.78;;;-2.80;81.90;;;;;;5072897;28;20021;-74
2022/01/07 00:42:51;;;;;;;14.18;6.75;;;-2.80;81.80;;;;;;5072943;28;20021;-74
2022/01/07 00:45:18;;;;;;;15.32;6.90;;;-2.80;81.70;;;;;;5072847;28;20390;-74
2022/01/07 00:47:45;;;;;;;15.38;6.32;;;-2.70;81.40;;;;;;5072792;28;20024;-74
2022/01/07 00:50:11;;;;;;;17.65;6.85;;;-2.70;81.70;;;;;;5072741;28;20021;-74
2022/01/07 00:52:37;;;;;;;17.30;6.82;;;-2.80;81.70;;;;;;5072783;28;20439;-74
2022/01/07 00:55:04;;;;;;;17.75;6.00;;;-2.80;81.70;;;;;;5072678;28;20070;-74
2022/01/07 00:57:30;;;;;;;15.02;6.47;;;-2.80;81.90;;;;;;5072801;28;20089;-74
2022/01/07 00:59:55;;;;;;;15.35;6.45;;;-2.80;82.00;;;;;;5054859;28;20032;-74
2022/01/07 01:02:21;;;;;;;13.07;6.10;;;-2.70;82.50;;;;;;5073498;28;20056;-74
2022/01/07 01:04:47;;;;;;;18.35;6.63;;;-2.60;83.10;;;;;;5077317;28;20032;-76
2022/01/07 01:07:14;;;;;;;14.23;5.53;;;-2.50;83.60;;;;;;5096364;28;20009;-75
2022/01/07 01:09:40;;;;;;;14.05;5.97;;;-2.50;83.80;;;;;;5096226;28;20024;-72
2022/01/07 01:12:06;;;;;;;12.98;5.50;;;-2.40;84.00;;;;;;5097980;28;20013;-79
2022/01/07 01:14:33;;;;;;;10.38;5.50;;;-2.30;84.30;;;;;;5096131;28;20080;-73
2022/01/07 01:16:59;;;;;;;16.17;5.78;;;-2.20;84.00;;;;;;5095271;28;20005;-74
2022/01/07 01:19:26;;;;;;;11.73;6.22;;;-2.20;83.60;;;;;;5076396;28;20020;-74
2022/01/07 01:21:52;;;;;;;13.65;5.88;;;-2.10;83.40;;;;;;5072915;28;20025;-74
2022/01/07 01:24:17;;;;;;;10.27;5.15;;;-2.10;83.30;;;;;;5072530;28;20043;-75
2022/01/07 01:26:43;;;;;;;11.38;5.88;;;-2.00;83.20;;;;;;5072855;28;20024;-75
2022/01/07 01:29:09;;;;;;;10.68;5.45;;;-2.10;83.00;;;;;;5072802;28;20131;-76
2022/01/07 01:31:36;;;;;;;9.25;5.47;;;-2.10;83.20;;;;;;5072747;28;20031;-75
2022/01/07 01:34:03;;;;;;;10.40;4.82;;;-2.10;83.20;;;;;;5072433;28;20075;-75
2022/01/07 01:36:29;;;;;;;11.43;6.20;;;-2.20;83.20;;;;;;5072255;28;20078;-75
2022/01/07 01:38:54;;;;;;;11.48;5.22;;;-2.10;83.40;;;;;;5072331;28;20033;-75
2022/01/07 01:41:20;;;;;;;13.13;5.45;;;-2.10;83.30;;;;;;5072144;28;20507;-77
2022/01/07 01:43:48;;;;;;;9.98;6.00;;;-2.10;83.30;;;;;;5075567;28;20040;-75
2022/01/07 01:46:17;;;;;;;11.50;5.82;;;-2.10;83.30;;;;;;5057919;28;20396;-76
2022/01/07 01:48:43;;;;;;;8.90;5.03;;;-2.10;83.50;;;;;;5075936;28;20044;-76
2022/01/07 01:51:09;;;;;;;14.05;6.10;;;-2.10;83.50;;;;;;5075608;28;20033;-77
2022/01/07 01:53:35;;;;;;;10.73;5.20;;;-2.10;83.50;;;;;;5075700;28;20017;-75
2022/01/07 01:56:00;;;;;;;10.35;6.38;;;-2.00;83.40;;;;;;5075666;28;20032;-77
2022/01/07 01:58:26;;;;;;;10.50;5.80;;;-2.00;83.10;;;;;;5075514;28;20499;-78
2022/01/07 02:00:52;;;;;;;13.68;6.45;;;-2.10;83.10;;;;;;5075429;28;20028;-77
2022/01/07 02:03:17;;;;;;;9.77;5.85;;;-2.10;83.20;;;;;;5075519;28;20017;-75
2022/01/07 02:05:45;;;;;;;13.70;6.32;;;-2.10;83.30;;;;;;5075571;28;20384;-76
2022/01/07 02:08:11;;;;;;;11.32;5.40;;;-2.20;83.00;;;;;;5075792;28;20377;-76
2022/01/07 02:10:37;;;;;;;11.68;6.05;;;-2.20;83.10;;;;;;5057298;28;20036;-78
2022/01/07 02:13:03;;;;;;;11.07;5.65;;;-2.20;83.20;;;;;;5075439;28;20021;-75
2022/01/07 02:15:29;;;;;;;11.82;5.55;;;-2.20;83.20;;;;;;5075351;28;20532;-75
2022/01/07 02:17:57;;;;;;;11.52;6.28;;;-2.10;83.30;;;;;;5075142;28;20024;-77
2022/01/07 02:20:25;;;;;;;11.07;5.35;;;-2.10;83.30;;;;;;5075240;28;20025;-79
2022/01/07 02:22:51;;;;;;;9.75;5.53;;;-2.10;83.10;;;;;;5075102;28;20020;-79
2022/01/07 02:25:17;;;;;;;12.40;6.40;;;-2.10;83.40;;;;;;5075243;28;20047;-79
2022/01/07 02:27:44;;;;;;;15.32;6.97;;;-2.10;83.50;;;;;;5075274;28;20469;-80
2022/01/07 02:30:13;;;;;;;15.05;6.85;;;-2.00;83.60;;;;;;5075155;28;20036;-79
2022/01/07 02:32:39;;;;;;;13.10;6.68;;;-2.00;83.50;;;;;;5075017;28;20493;-80
2022/01/07 02:35:06;;;;;;;18.85;6.88;;;-2.00;83.40;;;;;;5074978;28;20052;-78
2022/01/07 02:37:32;;;;;;;14.82;7.55;;;-2.00;83.50;;;;;;5074850;28;20119;-79
2022/01/07 02:39:57;;;;;;;13.07;6.40;;;-1.90;83.60;;;;;;5074981;28;20056;-81
2022/01/07 02:42:25;;;;;;;13.43;7.70;;;-2.00;83.40;;;;;;5074697;28;20027;-80
2022/01/07 02:44:51;;;;;;;16.70;7.40;;;-2.00;83.10;;;;;;5074715;28;20039;-79
2022/01/07 02:47:17;;;;;;;16.20;7.65;;;-2.00;83.30;;;;;;5074672;28;20025;-77
2022/01/07 02:49:43;;;;;;;13.20;7.25;;;-1.90;83.40;;;;;;5074345;28;20024;-76
2022/01/07 02:52:09;;;;;;;14.25;7.50;;;-2.00;83.20;;;;;;5074663;28;20101;-76
2022/01/07 02:54:34;;;;;;;13.63;7.32;;;-2.00;83.20;;;;;;5074245;28;20035;-76
2022/01/07 02:57:00;;;;;;;16.35;7.75;;;-1.90;83.30;;;;;;5074434;28;20079;-77
2022/01/07 02:59:25;;;;;;;13.50;7.90;;;-1.90;83.20;;;;;;5074513;28;20373;-77
2022/01/07 03:01:51;;;;;;;18.27;8.23;;;-1.90;83.00;;;;;;5074421;28;20017;-77
2022/01/07 03:04:16;;;;;;;15.40;7.63;;;-1.90;82.90;;;;;;5075953;28;20381;-76
2022/01/07 03:06:43;;;;;;;14.40;7.95;;;-1.90;82.90;;;;;;5075243;28;20105;-78
2022/01/07 03:09:08;;;;;;;15.38;7.97;;;-1.80;82.80;;;;;;5074226;28;20116;-78
2022/01/07 03:11:35;;;;;;;14.50;8.30;;;-1.90;82.50;;;;;;5074341;28;20497;-77
2022/01/07 03:14:01;;;;;;;16.40;8.95;;;-1.90;82.20;;;;;;5074163;28;20107;-76
2022/01/07 03:16:26;;;;;;;15.95;8.90;;;-1.90;82.30;;;;;;5074193;28;20052;-77
2022/01/07 03:18:52;;;;;;;18.77;8.40;;;-2.00;82.50;;;;;;5074391;28;20054;-77
2022/01/07 03:21:18;;;;;;;19.02;9.60;;;-2.00;82.60;;;;;;5074049;28;20016;-78
2022/01/07 03:23:44;;;;;;;22.67;9.18;;;-2.00;82.50;;;;;;5074106;28;20032;-78
2022/01/07 03:26:10;;;;;;;19.73;9.65;;;-1.90;82.40;;;;;;5074055;28;20043;-78
2022/01/07 03:28:37;;;;;;;14.68;8.43;;;-1.90;82.40;;;;;;5073974;28;20025;-77
2022/01/07 03:31:03;;;;;;;18.90;8.38;;;-1.90;82.40;;;;;;5073278;28;20031;-78
2022/01/07 03:33:28;;;;;;;16.02;9.30;;;-1.90;82.20;;;;;;5055735;28;20021;-78
2022/01/07 03:35:54;;;;;;;16.70;9.38;;;-1.90;82.50;;;;;;5073631;28;20452;-78
2022/01/07 03:38:20;;;;;;;18.92;9.13;;;-1.80;82.70;;;;;;5073585;28;20504;-79
2022/01/07 03:40:46;;;;;;;19.10;8.57;;;-1.80;82.60;;;;;;5073718;28;20016;-78
2022/01/07 03:43:13;;;;;;;16.55;8.23;;;-1.70;82.50;;;;;;5073639;28;20082;-77
2022/01/07 03:45:38;;;;;;;20.15;9.50;;;-1.60;82.20;;;;;;5073611;28;20063;-77
2022/01/07 03:48:04;;;;;;;15.07;9.15;;;-1.60;82.00;;;;;;5073561;28;20460;-78
2022/01/07 03:50:30;;;;;;;18.95;9.43;;;-1.60;81.70;;;;;;5073604;28;20032;-78
2022/01/07 03:52:57;;;;;;;17.67;9.38;;;-1.60;81.50;;;;;;5073533;28;20031;-77
2022/01/07 03:55:25;;;;;;;17.13;9.13;;;-1.60;81.40;;;;;;5073455;28;20546;-78
2022/01/07 03:57:51;;;;;;;19.25;9.77;;;-1.60;81.60;;;;;;5056059;28;20024;-79
2022/01/07 04:00:20;;;;;;;16.55;8.45;;;-1.60;81.80;;;;;;5073214;28;20074;-79
2022/01/07 04:02:46;;;;;;;16.23;9.55;;;-1.50;81.90;;;;;;5073289;28;20444;-79
2022/01/07 04:05:14;;;;;;;16.15;8.40;;;-1.50;81.70;;;;;;5072539;28;20261;-78
2022/01/07 04:07:39;;;;;;;17.13;9.82;;;-1.50;81.60;;;;;;5073192;28;20016;-80
2022/01/07 04:10:06;;;;;;;15.77;8.98;;;-1.50;81.40;;;;;;5073191;28;20039;-79
2022/01/07 04:12:31;;;;;;;16.60;9.15;;;-1.40;81.50;;;;;;5073169;28;20028;-80
2022/01/07 04:15:09;;;;;;;17.98;9.00;;;-1.40;81.50;;;;;;5055305;28;20507;-79
2022/01/07 04:17:46;;;;;;;16.52;9.05;;;-1.40;81.30;;;;;;5073089;28;20039;-79
2022/01/07 04:20:18;;;;;;;17.75;9.15;;;-1.40;81.20;;;;;;5072946;28;20023;-80
2022/01/07 04:22:44;;;;;;;17.95;9.35;;;-1.30;81.20;;;;;;5073039;28;20107;-80
2022/01/07 04:25:16;;;;;;;19.08;9.95;;;-1.30;81.20;;;;;;5072720;28;20036;-81
2022/01/07 04:27:42;;;;;;;18.38;10.52;;;-1.30;81.20;;;;;;5073114;28;20151;-80
2022/01/07 04:30:08;;;;;;;18.27;9.75;;;-1.20;81.20;;;;;;5072996;28;20449;-81
2022/01/07 04:32:34;;;;;;;21.20;10.98;;;-1.20;81.10;;;;;;5055064;28;20025;-80
2022/01/07 04:35:00;;;;;;;18.45;10.07;;;-1.20;81.00;;;;;;5072685;28;20488;-80
2022/01/07 04:37:26;;;;;;;25.25;11.00;;;-1.10;80.90;;;;;;5072758;28;20025;-81
2022/01/07 04:39:52;;;;;;;19.77;10.43;;;-1.10;80.70;;;;;;5072953;28;20023;-79
2022/01/07 04:42:17;;;;;;;22.70;10.57;;;-1.20;80.70;;;;;;5072805;28;20028;-79
2022/01/07 04:44:43;;;;;;;17.52;9.77;;;-1.10;80.90;;;;;;5054710;28;20040;-79
2022/01/07 04:47:09;;;;;;;17.85;9.80;;;-1.10;80.90;;;;;;5072848;28;20419;-79
2022/01/07 04:49:35;;;;;;;16.45;9.70;;;-1.10;80.90;;;;;;5072655;28;20028;-81
2022/01/07 04:52:02;;;;;;;16.92;9.27;;;-1.00;80.80;;;;;;5072624;28;20078;-80
2022/01/07 04:54:28;;;;;;;16.83;9.88;;;-1.00;80.60;;;;;;5072634;28;20035;-80
2022/01/07 04:56:53;;;;;;;18.77;9.32;;;-1.00;80.50;;;;;;5054660;28;20024;-80
2022/01/07 04:59:19;;;;;;;15.95;9.40;;;-0.90;80.60;;;;;;5072978;28;20035;-80
2022/01/07 05:01:44;;;;;;;17.38;9.98;;;-0.90;80.60;;;;;;5092246;28;20082;-78
2022/01/07 05:04:10;;;;;;;17.13;9.68;;;-0.90;80.60;;;;;;5090174;28;20032;-81
2022/01/07 05:06:45;;;;;;;17.40;9.45;;;-0.80;80.50;;;;;;5072408;28;20063;-81
2022/01/07 05:09:19;;;;;;;18.00;10.65;;;-0.80;80.40;;;;;;5072553;28;20040;-79
2022/01/07 05:11:47;;;;;;;16.40;9.52;;;-0.80;80.30;;;;;;5072252;28;20032;-79
2022/01/07 05:14:13;;;;;;;16.48;9.30;;;-0.80;80.20;;;;;;5072543;28;20020;-79
2022/01/07 05:16:39;;;;;;;16.98;9.80;;;-0.80;80.20;;;;;;5072649;28;20506;-77
2022/01/07 05:19:05;;;;;;;13.57;8.93;;;-0.80;80.10;;;;;;5058379;28;20062;-75
2022/01/07 05:21:31;;;;;;;20.02;10.07;;;-0.80;80.10;;;;;;5076231;28;20028;-76
2022/01/07 05:23:56;;;;;;;17.58;9.35;;;-0.80;80.00;;;;;;5076269;28;20021;-78
2022/01/07 05:26:22;;;;;;;19.65;9.80;;;-0.80;79.80;;;;;;5075870;28;20032;-78
2022/01/07 05:28:50;;;;;;;16.35;9.45;;;-0.80;79.70;;;;;;5076116;28;20068;-78
2022/01/07 05:31:19;;;;;;;15.60;9.20;;;-0.80;79.60;;;;;;5076075;28;20473;-78
2022/01/07 05:33:45;;;;;;;15.90;9.70;;;-0.80;79.70;;;;;;5076153;28;20024;-78
2022/01/07 05:36:11;;;;;;;14.98;9.30;;;-0.80;79.70;;;;;;5076451;28;20032;-77
2022/01/07 05:38:36;;;;;;;16.73;9.80;;;-0.90;79.80;;;;;;5089113;28;20021;-78
2022/01/07 05:41:02;;;;;;;19.50;9.65;;;-0.90;79.80;;;;;;5088333;28;20033;-78
2022/01/07 05:43:28;;;;;;;18.38;9.85;;;-0.90;80.00;;;;;;5060170;28;20032;-77
2022/01/07 05:45:54;;;;;;;17.08;8.68;;;-1.00;80.00;;;;;;5076269;28;20123;-78
2022/01/07 05:48:20;;;;;;;15.68;8.65;;;-0.90;80.00;;;;;;5075590;28;20024;-77
2022/01/07 05:50:46;;;;;;;15.25;9.13;;;-0.90;79.90;;;;;;5075683;28;20505;-78
2022/01/07 05:53:12;;;;;;;17.40;8.77;;;-0.90;79.80;;;;;;5075603;28;20105;-76
2022/01/07 05:55:37;;;;;;;18.23;8.82;;;-0.90;79.80;;;;;;5075465;28;20030;-80
2022/01/07 05:58:03;;;;;;;18.25;9.65;;;-0.90;79.80;;;;;;5075636;28;20393;-78
2022/01/07 06:00:29;;;;;;;17.15;9.98;;;-0.90;79.60;;;;;;5075544;28;20063;-79
2022/01/07 06:02:54;;;;;;;17.00;9.40;;;-0.90;79.50;;;;;;5075536;28;20024;-79
2022/01/07 06:05:20;;;;;;;16.02;7.68;;;-0.80;79.60;;;;;;5075280;28;20119;-79
2022/01/07 06:07:46;;;;;;;14.07;7.75;;;-0.90;79.60;;;;;;5075540;28;20020;-79
2022/01/07 06:10:12;;;;;;;15.48;8.38;;;-0.80;79.40;;;;;;5075407;28;20078;-79
2022/01/07 06:12:38;;;;;;;15.48;8.23;;;-0.80;79.40;;;;;;5057450;28;20029;-75
2022/01/07 06:15:05;;;;;;;17.58;8.98;;;-0.80;79.70;;;;;;5075363;28;20040;-76
2022/01/07 06:17:30;;;;;;;18.13;9.40;;;-0.90;79.90;;;;;;5075136;28;20422;-77
2022/01/07 06:19:56;;;;;;;16.80;9.45;;;-0.80;80.10;;;;;;5074888;28;20091;-79
2022/01/07 06:22:21;;;;;;;17.75;9.60;;;-0.80;80.10;;;;;;5075083;28;20031;-80
2022/01/07 06:24:47;;;;;;;13.70;7.28;;;-0.70;80.10;;;;;;5075250;28;20028;-79
2022/01/07 06:27:12;;;;;;;16.17;8.38;;;-0.70;80.00;;;;;;5074844;28;20362;-80
2022/01/07 06:29:38;;;;;;;11.95;7.47;;;-0.70;79.60;;;;;;5074468;28;20370;-80
2022/01/07 06:32:05;;;;;;;13.82;7.63;;;-0.60;79.70;;;;;;5075196;28;20029;-79
2022/01/07 06:34:30;;;;;;;12.45;6.75;;;-0.60;79.50;;;;;;5074739;28;20817;-80
2022/01/07 06:36:58;;;;;;;14.32;7.13;;;-0.50;79.40;;;;;;5074733;28;20024;-79
2022/01/07 06:39:24;;;;;;;11.73;6.60;;;-0.50;78.70;;;;;;5074705;28;20020;-79
2022/01/07 06:41:51;;;;;;;11.02;6.38;;;-0.50;78.70;;;;;;5056467;28;20033;-79
2022/01/07 06:44:17;;;;;;;11.38;6.32;;;-0.50;78.60;;;;;;5074522;28;20358;-79
2022/01/07 06:46:43;;;;;;;11.52;5.80;;;-0.50;77.80;;;;;;5074572;28;20430;-80
2022/01/07 06:49:09;;;;;;;11.98;6.72;;;-0.40;77.20;;;;;;5074645;28;20048;-79
2022/01/07 06:51:34;;;;;;;11.45;6.45;;;-0.40;76.20;;;;;;5074535;28;20461;-80
2022/01/07 06:54:00;;;;;;;13.38;6.95;;;-0.40;76.60;;;;;;5074422;28;20046;-79
2022/01/07 06:56:27;;;;;;;12.57;6.70;;;-0.30;76.70;;;;;;5074361;28;20033;-78
2022/01/07 06:58:53;;;;;;;10.85;6.78;;;-0.40;77.70;;;;;;5074349;28;20119;-79
2022/01/07 07:01:19;;;;;;;10.65;6.18;;;-0.30;77.20;;;;;;5074247;28;20056;-78
2022/01/07 07:03:45;;;;;;;10.07;6.32;;;-0.30;77.30;;;;;;5074263;28;20024;-78
2022/01/07 07:06:12;;;;;;;11.48;6.40;;;-0.30;77.30;;;;;;5074407;28;20082;-78
2022/01/07 07:08:38;;;;;;;12.18;6.30;;;-0.40;77.30;;;;;;5074389;28;20024;-78
2022/01/07 07:11:04;;;;;;;11.07;6.65;;;-0.40;77.50;;;;;;5074248;28;20040;-78
2022/01/07 07:13:30;;;;;;;11.93;5.60;;;-0.40;77.50;;;;;;5073916;28;20389;-79
2022/01/07 07:15:56;;;;;;;11.25;6.20;;;-0.30;77.90;;;;;;5074037;28;20028;-79
2022/01/07 07:18:21;;;;;;;10.68;5.47;;;-0.30;77.50;;;;;;5074028;28;20124;-78
2022/01/07 07:20:47;;;;;;;10.73;6.30;;;-0.30;77.50;;;;;;5073999;28;20029;-79
2022/01/07 07:23:13;;;;;;;10.80;5.57;;;-0.30;77.30;;;;;;5073759;28;20056;-80
2022/01/07 07:25:38;;;;;;;8.45;5.60;;;-0.20;77.20;;;;;;5073763;28;20085;-79
2022/01/07 07:28:05;;;;;;;18.35;8.90;;;-0.30;76.40;;;;;;5073720;28;20052;-79
2022/01/07 07:30:36;;;;;;;13.52;7.28;;;-0.30;76.70;;;;;;5073590;28;20044;-80
2022/01/07 07:33:28;;;;;;;12.90;6.68;;;-0.30;77.00;;;;;;5073619;28;20362;-77
2022/01/07 07:38:32;;;;;;;17.08;7.43;;;-0.30;77.00;;;;;;5073943;28;19910;-78
2022/01/07 07:40:58;;;;;;;12.15;6.07;;;-0.30;77.20;;;;;;5072874;28;20477;-78
2022/01/07 07:43:25;;;;;;;10.75;5.97;;;-0.30;76.80;;;;;;5073248;28;20074;-78
2022/01/07 07:45:51;;;;;;;10.38;5.95;;;-0.30;77.00;;;;;;5055324;28;20032;-78
2022/01/07 07:48:17;;;;;;;11.95;6.00;;;-0.30;77.20;;;;;;5073170;28;20111;-79
2022/01/07 07:50:42;;;;;;;10.60;6.25;;;-0.20;77.20;;;;;;5073156;28;20503;-77
2022/01/07 07:53:08;;;;;;;11.95;6.80;;;-0.30;78.10;;;;;;5073284;28;20024;-79
2022/01/07 07:55:34;;;;;;;10.43;6.05;;;-0.20;77.80;;;;;;5073103;28;20639;-76
2022/01/07 07:57:59;;;;;;;13.98;6.68;;;0.00;80.70;;;;;;5073078;28;20032;-77
2022/01/07 08:00:25;;;;;;;11.63;6.47;;;0.40;84.20;;;;;;5076891;28;20062;-75
2022/01/07 08:02:51;;;;;;;13.50;6.97;;;0.90;83.40;;;;;;5071872;28;20114;-80
2022/01/07 08:05:17;;;;;;;13.55;5.60;;;1.60;84.90;;;;;;5061438;28;20033;-80
2022/01/07 08:07:42;;;;;;;11.05;5.75;;;2.80;81.20;;;;;;5057902;28;20458;-84
2022/01/07 08:10:08;;;;;;;8.90;5.57;;;3.40;74.10;;;;;;5055484;28;20115;-81
2022/01/07 08:18:03;;;;;;;8.68;5.43;;;4.60;65.20;;;;;;5073488;28;20040;-79
2022/01/07 08:20:29;;;;;;;7.60;5.03;;;4.90;62.20;;;;;;5073191;28;20467;-80
2022/01/07 08:22:56;;;;;;;10.13;5.05;;;4.70;61.10;;;;;;5055176;28;20438;-82
2022/01/07 08:25:23;;;;;;;7.90;4.65;;;4.70;61.40;;;;;;5072673;28;20044;-80
2022/01/07 08:27:50;;;;;;;8.77;4.57;;;4.80;61.10;;;;;;5073649;28;20017;-81
2022/01/07 08:30:23;;;;;;;7.07;4.28;;;4.50;58.70;;;;;;5055766;28;20063;-79
2022/01/07 08:35:38;;;;;;;6.90;4.40;;;3.60;60.10;;;;;;5073025;28;20059;-77
2022/01/07 08:38:03;;;;;;;7.15;4.82;;;3.00;62.40;;;;;;5072897;28;20020;-76
2022/01/07 08:40:29;;;;;;;9.75;5.50;;;2.60;64.50;;;;;;5072914;28;20030;-77
2022/01/07 08:42:55;;;;;;;11.63;5.68;;;2.30;66.20;;;;;;5054873;28;20025;-76
2022/01/07 08:45:21;;;;;;;10.18;5.60;;;2.00;67.60;;;;;;5072421;28;20028;-78
2022/01/07 08:47:46;;;;;;;13.00;6.97;;;1.50;69.90;;;;;;5072486;28;20139;-77
2022/01/07 08:50:12;;;;;;;18.13;7.60;;;1.20;71.60;;;;;;5072522;28;20024;-78
2022/01/07 08:52:37;;;;;;;13.05;7.05;;;0.90;73.20;;;;;;5076198;28;20024;-78
2022/01/07 08:55:03;;;;;;;12.32;6.80;;;0.90;73.80;;;;;;5058933;28;20056;-77
2022/01/07 08:57:29;;;;;;;10.27;6.50;;;0.80;74.40;;;;;;5076787;28;20047;-78
2022/01/07 08:59:54;;;;;;;12.35;5.55;;;0.70;74.80;;;;;;5079104;28;20024;-78
2022/01/07 09:02:20;;;;;;;10.88;6.40;;;0.80;75.00;;;;;;5060612;28;20024;-77
2022/01/07 09:04:46;;;;;;;11.55;5.70;;;0.90;74.90;;;;;;5076476;28;20033;-76
2022/01/07 09:07:11;;;;;;;11.43;5.70;;;0.90;74.70;;;;;;5077505;28;20038;-76
2022/01/07 09:09:37;;;;;;;10.88;5.75;;;1.00;73.90;;;;;;5082740;28;20020;-76
2022/01/07 09:12:04;;;;;;;9.50;5.60;;;1.10;73.70;;;;;;5094787;28;20027;-76
2022/01/07 09:14:29;;;;;;;10.23;6.18;;;1.20;73.60;;;;;;5097489;28;20067;-77
2022/01/07 09:16:55;;;;;;;10.50;6.10;;;1.20;73.30;;;;;;5098779;28;20028;-77
2022/01/07 09:19:20;;;;;;;13.50;7.80;;;1.30;73.20;;;;;;5079972;28;20036;-77
2022/01/07 09:21:46;;;;;;;10.95;6.13;;;1.40;73.20;;;;;;5077000;28;20025;-77
2022/01/07 09:24:11;;;;;;;11.32;6.40;;;1.40;72.70;;;;;;5085873;28;20066;-77
2022/01/07 09:26:37;;;;;;;9.43;6.20;;;1.50;72.30;;;;;;5078855;28;20369;-77
2022/01/07 09:29:03;;;;;;;9.35;5.88;;;1.60;72.20;;;;;;5077498;28;20031;-77
2022/01/07 09:31:29;;;;;;;10.13;6.18;;;1.50;71.30;;;;;;5077652;28;20020;-77
2022/01/07 09:33:55;;;;;;;9.25;5.38;;;1.60;70.80;;;;;;5078023;28;20029;-77
2022/01/07 09:36:20;;;;;;;9.15;5.18;;;1.60;70.30;;;;;;5058816;28;20056;-77
2022/01/07 09:38:46;;;;;;;9.20;5.70;;;1.60;70.40;;;;;;5077118;28;20028;-77
2022/01/07 09:41:12;;;;;;;11.57;6.10;;;1.60;70.70;;;;;;5076127;28;20035;-77
2022/01/07 09:43:37;;;;;;;9.68;5.43;;;1.50;70.10;;;;;;5077447;28;20029;-76
2022/01/07 09:46:03;;;;;;;11.18;5.82;;;1.50;70.50;;;;;;5076390;28;20028;-76
2022/01/07 09:48:29;;;;;;;8.55;5.72;;;1.40;70.90;;;;;;5076465;28;20025;-77
2022/01/07 09:50:55;;;;;;;10.45;5.65;;;1.30;71.20;;;;;;5058140;28;20032;-77
2022/01/07 09:53:21;;;;;;;10.05;5.53;;;1.40;71.30;;;;;;5058779;28;20021;-77
2022/01/07 09:55:46;;;;;;;14.10;5.88;;;1.30;71.70;;;;;;5076580;28;20020;-77
2022/01/07 09:58:13;;;;;;;11.77;6.25;;;1.30;71.50;;;;;;5076373;28;20500;-76
2022/01/07 10:00:44;;;;;;;10.40;5.68;;;1.20;71.90;;;;;;5076122;28;20094;-77
2022/01/07 10:03:16;;;;;;;8.40;5.82;;;1.10;72.50;;;;;;5075485;28;20051;-77
2022/01/07 10:05:50;;;;;;;8.27;5.70;;;1.10;73.40;;;;;;5059548;28;20075;-77
2022/01/07 10:08:27;;;;;;;10.05;6.50;;;1.10;73.10;;;;;;5076298;28;20023;-77
2022/01/07 10:11:18;;;;;;;12.18;6.38;;;1.00;72.90;;;;;;5075896;28;20117;-77
2022/01/07 10:14:18;;;;;;;7.97;5.20;;;1.10;73.40;;;;;;5095332;28;20013;-77
2022/01/07 10:16:48;;;;;;;12.75;6.82;;;1.20;73.70;;;;;;5071738;28;20487;-77
2022/01/07 10:19:35;;;;;;;9.63;5.97;;;1.20;73.60;;;;;;5057159;28;20389;-77
2022/01/07 10:22:06;;;;;;;10.85;5.80;;;1.30;73.30;;;;;;5075516;28;20036;-76
2022/01/07 10:25:02;;;;;;;10.43;5.75;;;1.40;73.30;;;;;;5075518;28;20037;-76
2022/01/07 10:27:36;;;;;;;9.93;6.20;;;1.50;73.30;;;;;;5075189;28;20028;-77
2022/01/07 10:30:13;;;;;;;11.10;6.57;;;1.50;73.10;;;;;;5057062;28;20029;-76
2022/01/07 10:32:39;;;;;;;11.70;6.53;;;1.60;73.20;;;;;;5074828;28;20027;-79
2022/01/07 10:35:12;;;;;;;7.95;4.45;;;1.50;72.70;;;;;;5074562;28;20047;-77
2022/01/07 10:37:56;;;;;;;8.73;4.55;;;1.40;71.10;;;;;;5075058;28;20394;-77
2022/01/07 10:40:34;;;;;;;8.43;5.22;;;1.40;69.80;;;;;;5074994;28;20056;-77
2022/01/07 10:43:22;;;;;;;11.32;5.43;;;1.40;71.40;;;;;;5075097;28;20079;-78
2022/01/07 10:45:58;;;;;;;7.00;4.63;;;1.40;71.40;;;;;;5075094;28;20036;-79
2022/01/07 10:48:40;;;;;;;7.38;3.88;;;1.40;70.10;;;;;;5074754;28;20016;-78
2022/01/07 10:51:08;;;;;;;7.30;4.10;;;1.40;68.80;;;;;;5056859;28;20025;-78
2022/01/07 10:53:34;;;;;;;8.43;4.63;;;1.40;69.40;;;;;;5074562;28;20023;-76
2022/01/07 10:56:12;;;;;;;10.70;4.80;;;1.40;70.20;;;;;;5074610;28;20463;-78
2022/01/07 10:58:46;;;;;;;8.02;4.68;;;1.50;70.60;;;;;;5074303;28;20013;-78
2022/01/07 11:01:21;;;;;;;5.88;3.33;;;1.60;70.70;;;;;;5074276;28;20032;-77
2022/01/07 11:03:48;;;;;;;8.85;4.00;;;1.70;69.90;;;;;;5074326;28;20020;-78
2022/01/07 11:06:14;;;;;;;7.43;3.88;;;1.80;69.50;;;;;;5074069;28;20028;-79
2022/01/07 11:08:41;;;;;;;6.88;4.20;;;1.90;69.50;;;;;;5074259;28;20020;-77
2022/01/07 11:11:10;;;;;;;9.55;4.32;;;2.00;69.20;;;;;;5074153;28;20052;-78
2022/01/07 11:13:37;;;;;;;7.47;4.10;;;2.00;68.70;;;;;;5073896;28;20017;-76
2022/01/07 11:16:04;;;;;;;9.80;4.72;;;2.10;68.20;;;;;;5073081;28;20024;-76
2022/01/07 11:18:31;;;;;;;6.78;3.72;;;2.10;68.50;;;;;;5074032;28;20530;-77
2022/01/07 11:20:58;;;;;;;5.22;4.03;;;2.10;67.30;;;;;;5073833;28;20029;-77
2022/01/07 11:23:27;;;;;;;6.30;4.05;;;2.10;66.80;;;;;;5073718;28;20154;-77
2022/01/07 11:26:01;;;;;;;8.25;3.53;;;2.20;67.70;;;;;;5073357;28;20037;-76
2022/01/07 11:28:27;;;;;;;7.80;4.03;;;2.10;68.30;;;;;;5073785;28;20187;-77
2022/01/07 11:31:09;;;;;;;10.13;5.97;;;2.10;68.20;;;;;;5073527;28;20453;-76
2022/01/07 11:33:35;;;;;;;7.07;3.70;;;2.10;69.20;;;;;;5076917;28;20025;-74
2022/01/07 11:36:00;;;;;;;8.40;4.13;;;2.00;69.30;;;;;;5073159;28;20049;-77
2022/01/07 11:38:44;;;;;;;7.72;3.70;;;2.00;70.90;;;;;;5073206;28;20021;-77
2022/01/07 11:41:33;;;;;;;7.88;4.47;;;2.10;71.60;;;;;;5073164;28;20444;-76
2022/01/07 11:44:10;;;;;;;8.50;5.35;;;2.20;72.20;;;;;;5073156;28;20021;-76
2022/01/07 11:46:36;;;;;;;8.13;5.13;;;2.30;72.40;;;;;;5072874;28;20477;-76
2022/01/07 11:49:03;;;;;;;5.72;3.85;;;2.30;73.60;;;;;;5072845;28;20030;-76
2022/01/07 11:51:55;;;;;;;7.57;4.88;;;2.30;74.20;;;;;;5073106;28;20024;-78
2022/01/07 11:54:20;;;;;;;12.38;4.90;;;2.50;74.10;;;;;;5069328;28;20048;-77
2022/01/07 11:56:49;;;;;;;6.65;4.32;;;2.50;74.10;;;;;;5073341;28;20028;-77
2022/01/07 11:59:24;;;;;;;6.80;4.00;;;2.60;73.80;;;;;;5054971;28;20074;-78
2022/01/07 12:02:03;;;;;;;7.97;4.43;;;2.50;71.60;;;;;;5055258;28;20032;-77
2022/01/07 12:04:31;;;;;;;9.95;4.18;;;2.50;72.00;;;;;;5088531;28;20054;-78
2022/01/07 12:06:59;;;;;;;6.05;3.47;;;2.60;72.10;;;;;;5054743;28;20035;-78
2022/01/07 12:09:30;;;;;;;6.53;3.60;;;2.60;71.70;;;;;;5054661;28;20024;-78
2022/01/07 12:12:17;;;;;;;7.15;4.03;;;2.70;71.60;;;;;;5072423;28;20396;-77
2022/01/07 12:14:51;;;;;;;8.20;3.95;;;2.80;71.60;;;;;;5051607;28;20024;-80
2022/01/07 12:17:18;;;;;;;7.93;3.77;;;2.60;71.80;;;;;;5054827;28;20055;-81
2022/01/07 12:19:51;;;;;;;5.07;3.60;;;2.60;72.00;;;;;;5056815;28;20434;-77
2022/01/07 12:22:17;;;;;;;8.40;4.22;;;2.70;72.20;;;;;;5056147;28;20028;-75
2022/01/07 12:24:44;;;;;;;9.65;4.65;;;2.80;71.80;;;;;;5054645;28;20089;-75
2022/01/07 12:27:19;;;;;;;14.20;6.43;;;2.80;71.60;;;;;;5054553;28;20500;-75
2022/01/07 12:29:46;;;;;;;;;;;2.80;71.60;;;;;;5055224;28;20393;-77
2022/01/07 12:32:13;;;;;;;13.27;6.63;;;2.90;72.00;;;;;;5054786;28;19912;-77
2022/01/07 12:34:46;;;;;;;13.20;6.53;;;2.90;72.00;;;;;;5054481;28;20048;-76
2022/01/07 12:37:30;;;;;;;9.85;5.70;;;3.00;71.70;;;;;;5054379;28;20055;-79
2022/01/07 12:40:01;;;;;;;6.90;3.95;;;3.10;71.50;;;;;;5054848;28;20056;-78
2022/01/07 12:42:29;;;;;;;16.27;7.25;;;3.10;71.40;;;;;;5054234;28;20074;-79
2022/01/07 12:44:57;;;;;;;6.45;3.30;;;3.10;70.90;;;;;;5054051;28;20025;-79
2022/01/07 12:47:31;;;;;;;6.95;2.38;;;3.10;70.30;;;;;;5054411;28;20554;-78
2022/01/07 12:50:02;;;;;;;5.43;2.30;;;2.90;70.10;;;;;;5054377;28;20366;-79
2022/01/07 12:52:35;;;;;;;3.53;2.17;;;2.90;70.30;;;;;;5054364;28;20029;-79
2022/01/07 12:55:21;;;;;;;6.43;2.97;;;2.80;71.10;;;;;;5071634;28;20024;-79
2022/01/07 12:57:47;;;;;;;;;;;2.80;70.90;;;;;;5054928;28;20035;-79